Nakhchivan — 9HHK8 — position and weather

sailwx.info

Track history (hours):
 
Tides and Currents Weather Stations Pressure Air Temp Water Temp Dewpoint Dewpoint Depression Visibility Wind Speed Wind Dir Waves Ship Positions

Nakhchivan

Last reported at 2017-Feb-08 01:16 UTC. Time now 2017-Feb-19 16:52 UTC.
Position N 43°15' E 004°25'.
Warning: this ship's position is 11 days out of date.

Length 139 m; draft 4.6 m.

Type: Cargo ship. MMSI: 215983000.

Date/timePositionNaut miles runAvg speedWind from/ knotsBaromVisibWave heightAir tempDewpointWater temp
2017-Feb-08 01:16N 43°15' E 004°25'18 9.1
2017-Feb-07 23:16N 43°09' E 004°49'243 6.9
2017-Feb-06 12:17N 42°33' E 010°16'5 0.2
2017-Feb-05 05:29N 42°38' E 010°19'7 5.9
2017-Feb-05 04:22N 42°33' E 010°13'  
2017-Feb-02 20:32N 36°49' E 012°56'48 9.2
2017-Feb-02 15:18N 36°25' E 013°48'7 8.9
2017-Feb-02 14:32N 36°21' E 013°55'9 8.8
2017-Feb-02 13:33N 36°17' E 014°04'9 9.0
2017-Feb-02 12:33N 36°12' E 014°13'10 9.5
2017-Feb-02 11:33N 36°04' E 014°21'6 5.9
2017-Feb-02 10:33N 35°59' E 014°25'0 0.0
2017-Feb-02 09:31N 35°59' E 014°25'0 0.0
2017-Feb-02 08:32N 35°59' E 014°25'0 0.0
2017-Feb-02 07:32N 35°59' E 014°25'3 2.6
2017-Feb-02 06:33N 35°59' E 014°28'10 9.6
2017-Feb-02 05:32N 35°56' E 014°39'  
2017-Jan-31 00:23N 37°32' E 024°04'1210.3
2017-Jan-30 23:14N 37°42' E 024°13'7 9.6
2017-Jan-30 22:33N 37°47' E 024°18'10 9.6
2017-Jan-30 21:33N 37°52' E 024°28'  
Track history (hours):
 
Tides and Currents Weather Stations Pressure Air Temp Water Temp Dewpoint Dewpoint Depression Visibility Wind Speed Wind Dir Waves Ship Positions

Nakhchivan

Last reported at 2017-Feb-08 01:16 UTC. Time now 2017-Feb-19 16:52 UTC.
Position N 43°15' E 004°25'.
Warning: this ship's position is 11 days out of date.

Length 139 m; draft 4.6 m.

Type: Cargo ship. MMSI: 215983000.

Date/timePositionNaut miles runAvg speedWind from/ knotsBaromVisibWave heightAir tempDewpointWater temp
2017-Feb-08 01:16N 43°15' E 004°25'18 9.1
2017-Feb-07 23:16N 43°09' E 004°49'243 6.9
2017-Feb-06 12:17N 42°33' E 010°16'5 0.2
2017-Feb-05 05:29N 42°38' E 010°19'7 5.9
2017-Feb-05 04:22N 42°33' E 010°13'  
2017-Feb-02 20:32N 36°49' E 012°56'48 9.2
2017-Feb-02 15:18N 36°25' E 013°48'7 8.9
2017-Feb-02 14:32N 36°21' E 013°55'9 8.8
2017-Feb-02 13:33N 36°17' E 014°04'9 9.0
2017-Feb-02 12:33N 36°12' E 014°13'10 9.5
2017-Feb-02 11:33N 36°04' E 014°21'6 5.9
2017-Feb-02 10:33N 35°59' E 014°25'0 0.0
2017-Feb-02 09:31N 35°59' E 014°25'0 0.0
2017-Feb-02 08:32N 35°59' E 014°25'0 0.0
2017-Feb-02 07:32N 35°59' E 014°25'3 2.6
2017-Feb-02 06:33N 35°59' E 014°28'10 9.6
2017-Feb-02 05:32N 35°56' E 014°39'  
2017-Jan-31 00:23N 37°32' E 024°04'1210.3
2017-Jan-30 23:14N 37°42' E 024°13'7 9.6
2017-Jan-30 22:33N 37°47' E 024°18'10 9.6
2017-Jan-30 21:33N 37°52' E 024°28'  

Dump ship's entire track history